createdAt,value
2019-04-29T00:02:32.208Z,7.20
2019-04-29T00:05:25.168Z,7.20
2019-04-29T00:08:21.726Z,7.10
2019-04-29T00:11:20.910Z,7.10
2019-04-29T00:14:25.129Z,7.10
2019-04-29T00:17:43.075Z,7.10
2019-04-29T00:20:59.481Z,7.10
2019-04-29T00:23:42.499Z,7.00
2019-04-29T00:26:28.299Z,6.90
2019-04-29T00:29:03.842Z,6.80
2019-04-29T00:31:51.567Z,6.80
2019-04-29T00:34:36.539Z,6.80
2019-04-29T00:37:58.368Z,6.70
2019-04-29T00:40:57.577Z,6.80
2019-04-29T00:44:20.539Z,6.80
2019-04-29T00:46:53.832Z,6.70
2019-04-29T00:49:55.184Z,6.70
2019-04-29T00:52:44.763Z,6.70
2019-04-29T00:58:20.866Z,6.60
2019-04-29T01:01:33.583Z,6.60
2019-04-29T01:04:14.333Z,6.60
2019-04-29T01:06:54.176Z,6.50
2019-04-29T01:09:40.794Z,6.50
2019-04-29T01:12:26.981Z,6.50
2019-04-29T01:15:15.219Z,6.50
2019-04-29T01:17:52.826Z,6.40
2019-04-29T01:20:54.998Z,6.40
2019-04-29T01:23:43.857Z,6.40
2019-04-29T01:27:08.353Z,6.50
2019-04-29T01:32:57.033Z,6.60
2019-04-29T01:39:04.965Z,6.60
2019-04-29T01:42:38.174Z,6.60
2019-04-29T01:45:34.172Z,6.50
2019-04-29T01:48:38.510Z,6.50
2019-04-29T01:51:16.632Z,6.50
2019-04-29T01:53:55.834Z,6.40
2019-04-29T01:56:55.743Z,6.40
2019-04-29T01:59:33.651Z,6.40
2019-04-29T02:02:16.881Z,6.40
2019-04-29T02:04:51.403Z,6.40
2019-04-29T02:07:27.873Z,6.40
2019-04-29T02:10:36.021Z,6.50
2019-04-29T02:13:23.706Z,6.50
2019-04-29T02:16:25.479Z,6.50
2019-04-29T02:19:17.607Z,6.50
2019-04-29T02:22:22.076Z,6.50
2019-04-29T02:25:39.057Z,6.50
2019-04-29T02:28:42.910Z,6.50
2019-04-29T02:31:44.836Z,6.50
2019-04-29T02:34:33.316Z,6.50
2019-04-29T02:37:10.789Z,6.50
2019-04-29T02:40:14.286Z,6.50
2019-04-29T02:43:23.051Z,6.60
2019-04-29T02:46:23.775Z,6.60
2019-04-29T02:49:03.690Z,6.60
2019-04-29T02:51:55.412Z,6.60
2019-04-29T02:54:34.167Z,6.70
2019-04-29T02:57:24.847Z,6.70
2019-04-29T03:00:40.181Z,6.70
2019-04-29T03:03:40.762Z,6.70
2019-04-29T03:06:30.155Z,6.70
2019-04-29T03:09:19.523Z,6.70
2019-04-29T03:12:23.244Z,6.80
2019-04-29T03:15:17.705Z,6.80
2019-04-29T03:17:55.713Z,6.80
2019-04-29T03:21:02.189Z,6.80
2019-04-29T03:30:38.323Z,6.80
2019-04-29T03:33:13.707Z,6.80
2019-04-29T03:35:44.463Z,6.80
2019-04-29T03:38:15.125Z,6.80
2019-04-29T03:40:45.806Z,6.80
2019-04-29T03:43:16.527Z,6.80
2019-04-29T03:45:47.268Z,6.80
2019-04-29T03:48:18.237Z,6.80
2019-04-29T03:50:48.901Z,6.80
2019-04-29T03:53:19.622Z,6.90
2019-04-29T03:55:52.101Z,6.90
2019-04-29T03:58:22.708Z,6.90
2019-04-29T04:00:58.011Z,6.90
2019-04-29T04:03:35.377Z,6.90
2019-04-29T04:06:17.498Z,7.00
2019-04-29T04:09:04.821Z,7.00
2019-04-29T04:11:23.744Z,7.00
2019-04-29T04:13:54.354Z,7.10
2019-04-29T04:16:43.379Z,7.10
2019-04-29T04:19:14.151Z,7.10
2019-04-29T04:21:44.805Z,7.20
2019-04-29T04:24:15.465Z,7.20
2019-04-29T04:26:46.054Z,7.20
2019-04-29T04:29:16.750Z,7.30
2019-04-29T04:31:47.364Z,7.30
2019-04-29T04:34:18.181Z,7.30
2019-04-29T04:36:48.832Z,7.40
2019-04-29T04:39:19.525Z,7.40
2019-04-29T04:41:50.182Z,7.50
2019-04-29T04:44:20.869Z,7.50
2019-04-29T04:46:51.645Z,7.50
2019-04-29T04:49:24.673Z,7.50
2019-04-29T04:51:55.267Z,7.60
2019-04-29T04:54:25.998Z,7.60
2019-04-29T04:56:56.704Z,7.70
2019-04-29T04:59:28.125Z,7.80
2019-04-29T05:01:58.687Z,7.90
2019-04-29T05:04:29.377Z,8.00
2019-04-29T05:06:59.983Z,8.10
2019-04-29T05:09:30.720Z,8.20
2019-04-29T05:12:01.398Z,8.30
2019-04-29T05:14:32.158Z,8.30
2019-04-29T05:17:05.965Z,8.30
2019-04-29T05:19:36.705Z,8.50
2019-04-29T05:22:08.542Z,8.60
2019-04-29T05:24:39.861Z,8.70
2019-04-29T05:27:10.492Z,8.80
2019-04-29T05:29:41.121Z,8.80
2019-04-29T05:32:11.728Z,8.90
2019-04-29T05:34:46.533Z,8.90
2019-04-29T05:37:27.412Z,8.90
2019-04-29T05:39:58.214Z,9.00
2019-04-29T05:42:29.122Z,9.00
2019-04-29T05:45:09.320Z,9.00
2019-04-29T05:47:59.179Z,9.10
2019-04-29T05:50:58.045Z,9.30
2019-04-29T05:53:35.294Z,9.40
2019-04-29T05:56:06.036Z,9.70
2019-04-29T05:58:37.821Z,10.00
2019-04-29T06:01:13.958Z,10.10
2019-04-29T06:03:44.833Z,10.30
2019-04-29T06:06:15.712Z,10.50
2019-04-29T06:08:46.420Z,10.50
2019-04-29T06:11:18.789Z,10.60
2019-04-29T06:13:51.511Z,10.50
2019-04-29T06:16:22.724Z,10.50
2019-04-29T06:18:59.435Z,10.40
2019-04-29T06:21:24.857Z,10.40
2019-04-29T06:23:59.355Z,10.40
2019-04-29T06:26:27.909Z,10.40
2019-04-29T06:28:58.716Z,10.40
2019-04-29T06:31:29.543Z,10.40
2019-04-29T06:34:00.656Z,10.50
2019-04-29T06:36:32.522Z,10.60
2019-04-29T06:39:04.731Z,10.60
2019-04-29T06:41:35.869Z,10.80
2019-04-29T06:44:15.900Z,10.90
2019-04-29T06:46:42.937Z,11.00
2019-04-29T06:49:13.645Z,11.20
2019-04-29T06:51:43.518Z,11.30
2019-04-29T06:54:13.058Z,11.40
2019-04-29T06:56:42.762Z,11.40
2019-04-29T06:59:13.977Z,11.50
2019-04-29T07:01:44.817Z,11.60
2019-04-29T07:04:15.617Z,11.90
2019-04-29T07:06:57.103Z,12.30
2019-04-29T07:09:21.855Z,12.60
2019-04-29T07:11:52.508Z,12.90
2019-04-29T07:14:23.163Z,13.10
2019-04-29T07:16:52.910Z,13.20
2019-04-29T07:19:26.625Z,13.30
2019-04-29T07:21:56.621Z,13.50
2019-04-29T07:24:27.399Z,13.70
2019-04-29T07:27:02.859Z,13.70
2019-04-29T07:29:32.531Z,13.60
2019-04-29T07:32:04.781Z,13.50
2019-04-29T07:34:37.735Z,13.20
2019-04-29T07:37:07.636Z,13.00
2019-04-29T07:39:38.456Z,12.70
2019-04-29T07:42:09.171Z,12.80
2019-04-29T07:44:48.870Z,12.40
2019-04-29T07:47:19.940Z,12.30
2019-04-29T07:49:55.733Z,12.20
2019-04-29T07:52:26.524Z,12.10
2019-04-29T07:54:57.148Z,11.90
2019-04-29T07:57:30.203Z,11.80
2019-04-29T08:00:00.426Z,11.70
2019-04-29T08:02:31.235Z,11.70
2019-04-29T08:05:02.149Z,11.60
2019-04-29T08:07:33.139Z,11.50
2019-04-29T08:10:22.289Z,11.50
2019-04-29T08:12:38.024Z,11.50
2019-04-29T08:15:10.617Z,11.50
2019-04-29T08:17:41.376Z,11.50
2019-04-29T08:20:12.386Z,11.50
2019-04-29T08:22:43.518Z,11.50
2019-04-29T08:25:16.972Z,11.40
2019-04-29T08:27:48.114Z,11.20
2019-04-29T08:30:19.211Z,11.10
2019-04-29T08:32:49.932Z,11.00
2019-04-29T08:35:20.955Z,11.00
2019-04-29T08:37:51.799Z,11.00
2019-04-29T08:40:22.649Z,11.00
2019-04-29T08:42:59.383Z,11.00
2019-04-29T08:45:39.209Z,11.00
2019-04-29T08:48:10.064Z,10.80
2019-04-29T08:50:41.049Z,10.60
2019-04-29T08:53:13.047Z,10.50
2019-04-29T08:55:43.989Z,10.40
2019-04-29T08:58:14.816Z,10.30
2019-04-29T09:00:51.356Z,10.30
2019-04-29T09:03:49.531Z,10.30
2019-04-29T09:08:13.529Z,10.30
2019-04-29T09:12:38.166Z,10.50
2019-04-29T09:15:16.715Z,10.60
2019-04-29T09:17:51.681Z,10.70
2019-04-29T09:20:23.004Z,10.70
2019-04-29T09:23:00.052Z,10.60
2019-04-29T09:26:07.535Z,10.60
2019-04-29T09:29:22.642Z,10.60
2019-04-29T09:35:33.751Z,10.60
2019-04-29T09:38:24.310Z,10.60
2019-04-29T09:41:01.568Z,10.70
2019-04-29T09:44:06.258Z,10.70
2019-04-29T09:46:40.275Z,10.70
2019-04-29T09:49:15.680Z,10.80
2019-04-29T09:51:55.700Z,10.80
2019-04-29T09:54:26.385Z,10.80
2019-04-29T09:57:03.907Z,10.90
2019-04-29T09:59:41.066Z,10.90
2019-04-29T10:02:30.807Z,10.90
2019-04-29T10:05:19.492Z,10.90
2019-04-29T10:08:09.797Z,10.90
2019-04-29T10:10:45.242Z,11.00
2019-04-29T10:13:20.202Z,11.00
2019-04-29T10:16:03.438Z,11.10
2019-04-29T10:18:43.916Z,11.20
2019-04-29T10:21:16.430Z,11.20
2019-04-29T10:23:47.822Z,11.20
2019-04-29T10:26:18.580Z,11.20
2019-04-29T10:28:56.893Z,11.10
2019-04-29T10:31:30.889Z,11.10
2019-04-29T10:34:01.815Z,11.00
2019-04-29T10:36:34.369Z,11.00
2019-04-29T10:39:43.595Z,10.90
2019-04-29T10:42:26.021Z,10.90
2019-04-29T10:45:22.688Z,10.90
2019-04-29T10:48:48.756Z,11.00
2019-04-29T10:52:02.508Z,10.90
2019-04-29T10:54:41.102Z,10.80
2019-04-29T10:57:14.714Z,10.70
2019-04-29T10:59:50.987Z,10.60
2019-04-29T11:02:49.355Z,10.60
2019-04-29T11:05:31.179Z,10.50
2019-04-29T11:08:26.409Z,10.40
2019-04-29T11:11:02.415Z,10.30
2019-04-29T11:13:46.232Z,10.30
2019-04-29T11:16:17.785Z,10.30
2019-04-29T11:19:00.181Z,10.40
2019-04-29T11:21:45.603Z,10.50
2019-04-29T11:24:28.204Z,10.60
2019-04-29T11:27:25.210Z,10.60
2019-04-29T11:30:04.787Z,10.70
2019-04-29T11:32:43.708Z,10.70
2019-04-29T11:35:38.919Z,10.80
2019-04-29T11:38:13.351Z,11.00
2019-04-29T11:40:53.201Z,11.10
2019-04-29T11:43:26.918Z,11.20
2019-04-29T11:45:57.698Z,11.20
2019-04-29T11:48:50.608Z,11.30
2019-04-29T11:51:33.629Z,11.20
2019-04-29T11:54:03.752Z,11.10
2019-04-29T11:56:34.750Z,11.10
2019-04-29T11:59:23.265Z,11.10
2019-04-29T12:02:13.304Z,11.00
2019-04-29T12:04:50.974Z,11.00
2019-04-29T12:07:21.837Z,11.00
2019-04-29T12:09:52.815Z,11.00
2019-04-29T12:12:23.769Z,10.90
2019-04-29T12:15:01.502Z,10.90
2019-04-29T12:17:46.114Z,10.90
2019-04-29T12:20:50.724Z,10.80
2019-04-29T12:23:27.015Z,10.80
2019-04-29T12:26:05.002Z,10.80
2019-04-29T12:28:38.012Z,10.80
2019-04-29T12:31:23.876Z,10.80
2019-04-29T12:34:00.548Z,10.80
2019-04-29T12:36:35.061Z,10.80
2019-04-29T12:39:44.739Z,10.80
2019-04-29T12:42:35.830Z,10.90
2019-04-29T12:45:23.068Z,10.90
2019-04-29T12:47:53.655Z,10.90
2019-04-29T12:50:26.002Z,10.90
2019-04-29T12:52:57.902Z,10.90
2019-04-29T12:55:47.328Z,10.90
2019-04-29T12:58:19.386Z,10.90
2019-04-29T13:00:59.901Z,10.90
2019-04-29T13:03:39.726Z,10.90
2019-04-29T13:06:39.165Z,10.90
2019-04-29T13:09:17.854Z,10.90
2019-04-29T13:11:49.517Z,11.00
2019-04-29T13:14:20.534Z,11.00
2019-04-29T13:17:14.343Z,11.00
2019-04-29T13:20:00.705Z,11.00
2019-04-29T13:22:22.624Z,11.00
2019-04-29T13:24:53.402Z,11.00
2019-04-29T13:27:25.359Z,11.00
2019-04-29T13:29:56.792Z,11.00
2019-04-29T13:32:31.179Z,11.00
2019-04-29T13:35:12.750Z,11.00
2019-04-29T13:37:44.887Z,11.00
2019-04-29T13:40:16.740Z,11.00
2019-04-29T13:42:49.229Z,11.00
2019-04-29T13:45:26.444Z,11.10
2019-04-29T13:48:16.527Z,11.20
2019-04-29T13:50:51.097Z,11.10
2019-04-29T13:53:23.773Z,11.10
2019-04-29T13:56:11.865Z,11.20
2019-04-29T13:58:41.125Z,11.10
2019-04-29T14:01:22.574Z,11.10
2019-04-29T14:04:11.977Z,11.00
2019-04-29T14:06:56.182Z,11.00
2019-04-29T14:09:18.441Z,11.00
2019-04-29T14:12:01.728Z,11.00
2019-04-29T14:14:28.370Z,11.00
2019-04-29T14:17:24.105Z,10.80
2019-04-29T14:19:52.549Z,10.90
2019-04-29T14:22:37.347Z,11.00
2019-04-29T14:25:20.976Z,11.00
2019-04-29T14:27:51.812Z,11.00
2019-04-29T14:30:37.959Z,11.10
2019-04-29T14:33:01.939Z,11.10
2019-04-29T14:35:55.616Z,11.30
2019-04-29T14:38:26.534Z,11.40
2019-04-29T14:40:58.796Z,11.60
2019-04-29T14:43:50.460Z,11.60
2019-04-29T14:46:56.194Z,11.70
2019-04-29T14:49:30.115Z,11.80
2019-04-29T14:52:03.359Z,12.10
2019-04-29T14:54:36.833Z,12.50
2019-04-29T14:57:08.885Z,12.70
2019-04-29T14:59:38.501Z,12.70
2019-04-29T15:02:19.236Z,12.70
2019-04-29T15:04:55.247Z,12.50
2019-04-29T15:07:28.183Z,12.40
2019-04-29T15:09:59.020Z,12.40
2019-04-29T15:12:52.163Z,12.40
2019-04-29T15:15:41.711Z,12.50
2019-04-29T15:18:45.963Z,12.60
2019-04-29T15:21:32.141Z,12.90
2019-04-29T15:23:57.105Z,12.80
2019-04-29T15:26:30.870Z,12.90
2019-04-29T15:29:04.783Z,13.00
2019-04-29T15:31:42.483Z,13.10
2019-04-29T15:34:14.402Z,13.10
2019-04-29T15:36:45.573Z,13.10
2019-04-29T15:39:17.085Z,13.30
2019-04-29T15:41:49.814Z,13.30
2019-04-29T15:44:22.941Z,13.30
2019-04-29T15:46:52.920Z,13.10
2019-04-29T15:49:24.613Z,13.10
2019-04-29T15:52:01.645Z,13.00
2019-04-29T15:54:35.324Z,13.00
2019-04-29T15:57:16.305Z,13.20
2019-04-29T15:59:59.643Z,13.40
2019-04-29T16:02:31.715Z,13.50
2019-04-29T16:05:18.134Z,13.50
2019-04-29T16:08:37.797Z,13.40
2019-04-29T16:11:38.030Z,13.30
2019-04-29T16:24:26.260Z,13.10
2019-04-29T16:27:56.312Z,12.90
2019-04-29T16:46:32.358Z,12.20
2019-04-29T16:58:18.037Z,12.30
2019-04-29T17:02:40.911Z,12.40
2019-04-29T17:10:31.734Z,12.30
2019-04-29T17:13:55.629Z,12.30
2019-04-29T17:17:08.817Z,12.20
2019-04-29T17:24:40.023Z,12.10
2019-04-29T17:35:17.400Z,13.10
2019-04-29T18:03:57.428Z,11.80
2019-04-29T18:07:40.454Z,11.80
2019-04-29T18:14:45.497Z,11.70
2019-04-29T18:21:49.251Z,11.60
2019-04-29T18:25:56.726Z,11.60
2019-04-29T18:28:09.648Z,11.60
2019-04-29T18:35:17.486Z,11.60
2019-04-29T18:38:22.430Z,11.50
2019-04-29T18:48:16.523Z,11.50
2019-04-29T18:51:25.636Z,11.50
2019-04-29T18:57:48.417Z,11.50
2019-04-29T19:00:29.877Z,11.50
2019-04-29T19:03:33.153Z,11.50
2019-04-29T19:10:00.255Z,11.50
2019-04-29T19:13:33.112Z,11.50
2019-04-29T19:16:57.701Z,11.50
2019-04-29T19:38:25.343Z,11.20
2019-04-29T19:49:28.989Z,11.30
2019-04-29T19:56:12.683Z,11.20
2019-04-29T19:59:17.443Z,11.20
2019-04-29T20:10:00.021Z,11.20
2019-04-29T20:23:11.587Z,11.20
2019-04-29T20:26:15.654Z,11.20
2019-04-29T20:29:34.028Z,11.20
2019-04-29T20:36:33.166Z,11.00
2019-04-29T20:42:52.084Z,10.90
2019-04-29T20:47:13.081Z,10.80
2019-04-29T20:48:55.827Z,10.70
2019-04-29T20:52:13.412Z,10.60
2019-04-29T20:56:12.698Z,10.50
2019-04-29T21:02:57.790Z,10.10
2019-04-29T21:09:35.518Z,9.90
2019-04-29T21:12:45.658Z,9.80
2019-04-29T21:19:33.365Z,9.60
2019-04-29T21:22:39.109Z,9.50
2019-04-29T21:27:06.487Z,9.40
2019-04-29T21:35:41.961Z,9.20
2019-04-29T21:38:55.739Z,9.20
2019-04-29T21:42:02.524Z,9.10
2019-04-29T21:44:58.669Z,9.10
2019-04-29T21:48:10.821Z,9.10
2019-04-29T21:50:38.016Z,9.00
2019-04-29T21:54:03.407Z,9.00
2019-04-29T21:57:09.717Z,9.10
2019-04-29T21:59:50.056Z,9.10
2019-04-29T22:02:32.849Z,9.20
2019-04-29T22:05:18.765Z,9.40
2019-04-29T22:07:54.841Z,9.40
2019-04-29T22:10:30.660Z,9.40
2019-04-29T22:13:05.302Z,9.40
2019-04-29T22:15:39.093Z,9.40
2019-04-29T22:18:14.114Z,9.40
2019-04-29T22:20:42.060Z,9.50
2019-04-29T22:23:15.252Z,9.60
2019-04-29T22:25:47.340Z,9.60
2019-04-29T22:28:19.764Z,9.60
2019-04-29T22:30:54.723Z,9.70
2019-04-29T22:33:25.231Z,9.60
2019-04-29T22:35:55.959Z,9.50
2019-04-29T22:38:26.718Z,9.30
2019-04-29T22:40:59.100Z,9.20
2019-04-29T22:43:40.185Z,9.10
2019-04-29T22:46:10.980Z,8.90
2019-04-29T22:48:45.438Z,8.80
2019-04-29T22:51:15.232Z,8.70
2019-04-29T22:53:48.158Z,8.70
2019-04-29T22:56:18.720Z,8.60
2019-04-29T22:58:49.400Z,8.50
2019-04-29T23:01:20.398Z,8.40
2019-04-29T23:03:51.103Z,8.40
2019-04-29T23:06:21.702Z,8.30
2019-04-29T23:08:52.442Z,8.30
2019-04-29T23:11:23.158Z,8.20
2019-04-29T23:13:55.415Z,8.20
2019-04-29T23:16:26.404Z,8.10
2019-04-29T23:18:57.060Z,8.10
2019-04-29T23:21:47.225Z,8.00
2019-04-29T23:24:46.774Z,8.00
2019-04-29T23:27:16.267Z,8.00
2019-04-29T23:29:47.599Z,8.00
2019-04-29T23:32:18.233Z,8.00
2019-04-29T23:34:48.858Z,8.00
2019-04-29T23:37:23.686Z,8.00
2019-04-29T23:39:51.796Z,7.90
2019-04-29T23:42:22.463Z,7.80
2019-04-29T23:44:55.064Z,7.80
2019-04-29T23:47:25.827Z,7.70
2019-04-29T23:49:56.480Z,7.70
2019-04-29T23:52:27.460Z,7.60
2019-04-29T23:55:07.785Z,7.60
2019-04-29T23:57:45.979Z,7.50
